KDSV/DSV METAR and TAF weather

Enter ICAO airport designator
Station Type Date Time Source
KDSV METAR 2020/02/29 02:54 UTC NOAA

KDSV 290254Z AUTO 00000KT 1 3/4SM -SN BR OVC017 M05/M07 A2980 RMK AO2 SLP110 P0000 60000 T10501072 53000


Station Type Date Time Source
KDSV Decoded METAR 2020/02/29 02:54 UTC NOAA

DANSVILLE MUNICIPAL AIRPORT, NY, United States (KDSV) 42-34N 077-43W 198M
Feb 28, 2020 - 09:54 PM EST / 2020.02.29 0254 UTC
Wind: Calm:0
Visibility: 1 3/4 mile(s):0
Sky conditions: overcast
Weather: light snow; mist
Precipitation last hour: A trace
Temperature: 23.0 F (-5.0 C)
Dew Point: 19.0 F (-7.2 C)
Relative Humidity: 84%
Pressure (altimeter): 29.8 in. Hg (1009 hPa)
Pressure tendency: 0.00 inches (0.0 hPa) higher than three hours ago
ob: KDSV 290254Z AUTO 00000KT 1 3/4SM -SN BR OVC017 M05/M07 A2980 RMK AO2 SLP110 P0000 60000 T10501072 53000
cycle: 3

Station Type Date Time Source
KDSV TAF UTC NOAA

Error!

Example: see airport list